sensor_id;sensor_type;location;lat;lon;timestamp;temperature;humidity
20650;DHT22;10484;48.736;9.332;2023-11-19T00:02:12;8.00;99.90
20650;DHT22;10484;48.736;9.332;2023-11-19T00:04:38;8.00;99.90
20650;DHT22;10484;48.736;9.332;2023-11-19T00:07:07;8.00;99.90
20650;DHT22;10484;48.736;9.332;2023-11-19T00:09:33;8.00;99.90
20650;DHT22;10484;48.736;9.332;2023-11-19T00:11:59;8.00;99.90
20650;DHT22;10484;48.736;9.332;2023-11-19T00:14:26;8.10;99.90
20650;DHT22;10484;48.736;9.332;2023-11-19T00:16:52;8.10;99.90
20650;DHT22;10484;48.736;9.332;2023-11-19T00:19:19;8.10;99.90
20650;DHT22;10484;48.736;9.332;2023-11-19T00:21:44;8.10;99.90
20650;DHT22;10484;48.736;9.332;2023-11-19T00:24:11;8.10;99.90
20650;DHT22;10484;48.736;9.332;2023-11-19T00:26:38;8.10;99.90
20650;DHT22;10484;48.736;9.332;2023-11-19T00:29:04;8.10;99.90
20650;DHT22;10484;48.736;9.332;2023-11-19T00:31:29;8.10;99.90
20650;DHT22;10484;48.736;9.332;2023-11-19T00:33:55;8.10;99.90
20650;DHT22;10484;48.736;9.332;2023-11-19T00:36:21;8.10;99.90
20650;DHT22;10484;48.736;9.332;2023-11-19T00:38:49;8.10;99.90
20650;DHT22;10484;48.736;9.332;2023-11-19T00:41:15;8.10;99.90
20650;DHT22;10484;48.736;9.332;2023-11-19T00:43:42;8.10;99.90
20650;DHT22;10484;48.736;9.332;2023-11-19T00:46:07;8.20;99.90
20650;DHT22;10484;48.736;9.332;2023-11-19T00:48:33;8.20;99.90
20650;DHT22;10484;48.736;9.332;2023-11-19T00:50:59;8.20;99.90
20650;DHT22;10484;48.736;9.332;2023-11-19T00:53:25;8.20;99.90
20650;DHT22;10484;48.736;9.332;2023-11-19T00:55:50;8.20;99.90
20650;DHT22;10484;48.736;9.332;2023-11-19T00:58:16;8.20;99.90
20650;DHT22;10484;48.736;9.332;2023-11-19T01:00:43;8.20;99.90
20650;DHT22;10484;48.736;9.332;2023-11-19T01:03:10;8.20;99.90
20650;DHT22;10484;48.736;9.332;2023-11-19T01:05:36;8.30;99.90
20650;DHT22;10484;48.736;9.332;2023-11-19T01:08:02;8.20;99.90
20650;DHT22;10484;48.736;9.332;2023-11-19T01:10:30;8.30;99.90
20650;DHT22;10484;48.736;9.332;2023-11-19T01:12:55;8.30;99.90
20650;DHT22;10484;48.736;9.332;2023-11-19T01:15:21;8.30;99.90
20650;DHT22;10484;48.736;9.332;2023-11-19T01:17:47;8.30;99.90
20650;DHT22;10484;48.736;9.332;2023-11-19T01:20:12;8.30;99.90
20650;DHT22;10484;48.736;9.332;2023-11-19T01:22:39;8.40;99.90
20650;DHT22;10484;48.736;9.332;2023-11-19T01:25:06;8.40;99.90
20650;DHT22;10484;48.736;9.332;2023-11-19T01:27:32;8.40;99.90
20650;DHT22;10484;48.736;9.332;2023-11-19T01:30:00;8.40;99.90
20650;DHT22;10484;48.736;9.332;2023-11-19T01:32:27;8.40;99.90
20650;DHT22;10484;48.736;9.332;2023-11-19T01:34:53;8.40;99.90
20650;DHT22;10484;48.736;9.332;2023-11-19T01:37:18;8.50;99.90
20650;DHT22;10484;48.736;9.332;2023-11-19T01:39:44;8.40;99.90
20650;DHT22;10484;48.736;9.332;2023-11-19T01:42:10;8.50;99.90
20650;DHT22;10484;48.736;9.332;2023-11-19T01:44:37;8.50;99.90
20650;DHT22;10484;48.736;9.332;2023-11-19T01:47:03;8.50;99.90
20650;DHT22;10484;48.736;9.332;2023-11-19T01:49:31;8.50;99.90
20650;DHT22;10484;48.736;9.332;2023-11-19T01:51:57;8.50;99.90
20650;DHT22;10484;48.736;9.332;2023-11-19T01:54:23;8.50;99.90
20650;DHT22;10484;48.736;9.332;2023-11-19T01:56:49;8.60;99.90
20650;DHT22;10484;48.736;9.332;2023-11-19T01:59:15;8.60;99.90
20650;DHT22;10484;48.736;9.332;2023-11-19T02:01:41;8.50;99.90
20650;DHT22;10484;48.736;9.332;2023-11-19T02:04:08;8.60;99.90
20650;DHT22;10484;48.736;9.332;2023-11-19T02:06:34;8.60;99.90
20650;DHT22;10484;48.736;9.332;2023-11-19T02:09:02;8.60;99.90
20650;DHT22;10484;48.736;9.332;2023-11-19T02:11:33;8.60;99.90
20650;DHT22;10484;48.736;9.332;2023-11-19T02:13:59;8.60;99.90
20650;DHT22;10484;48.736;9.332;2023-11-19T02:16:25;8.70;99.90
20650;DHT22;10484;48.736;9.332;2023-11-19T02:18:50;8.70;99.90
20650;DHT22;10484;48.736;9.332;2023-11-19T02:21:16;8.70;99.90
20650;DHT22;10484;48.736;9.332;2023-11-19T02:23:43;8.70;99.90
20650;DHT22;10484;48.736;9.332;2023-11-19T02:26:19;8.70;99.90
20650;DHT22;10484;48.736;9.332;2023-11-19T02:28:50;8.70;99.90
20650;DHT22;10484;48.736;9.332;2023-11-19T02:31:16;8.70;99.90
20650;DHT22;10484;48.736;9.332;2023-11-19T02:33:41;8.70;99.90
20650;DHT22;10484;48.736;9.332;2023-11-19T02:36:08;8.70;99.90
20650;DHT22;10484;48.736;9.332;2023-11-19T02:38:34;8.80;99.90
20650;DHT22;10484;48.736;9.332;2023-11-19T02:41:03;8.70;99.90
20650;DHT22;10484;48.736;9.332;2023-11-19T02:43:31;8.80;99.90
20650;DHT22;10484;48.736;9.332;2023-11-19T02:46:01;8.80;99.90
20650;DHT22;10484;48.736;9.332;2023-11-19T02:48:27;8.70;99.90
20650;DHT22;10484;48.736;9.332;2023-11-19T02:50:52;8.80;99.90
20650;DHT22;10484;48.736;9.332;2023-11-19T02:53:18;8.80;99.90
20650;DHT22;10484;48.736;9.332;2023-11-19T02:55:47;8.80;99.90
20650;DHT22;10484;48.736;9.332;2023-11-19T02:58:15;8.80;99.90
20650;DHT22;10484;48.736;9.332;2023-11-19T03:00:49;8.80;99.90
20650;DHT22;10484;48.736;9.332;2023-11-19T03:03:19;8.80;99.90
20650;DHT22;10484;48.736;9.332;2023-11-19T03:05:48;8.80;99.90
20650;DHT22;10484;48.736;9.332;2023-11-19T03:08:15;8.80;99.90
20650;DHT22;10484;48.736;9.332;2023-11-19T03:10:41;8.80;99.90
20650;DHT22;10484;48.736;9.332;2023-11-19T03:13:11;8.80;99.90
20650;DHT22;10484;48.736;9.332;2023-11-19T03:15:41;8.90;99.90
20650;DHT22;10484;48.736;9.332;2023-11-19T03:18:07;8.90;99.90
20650;DHT22;10484;48.736;9.332;2023-11-19T03:20:32;8.90;99.90
20650;DHT22;10484;48.736;9.332;2023-11-19T03:22:58;8.90;99.90
20650;DHT22;10484;48.736;9.332;2023-11-19T03:25:25;8.90;99.90
20650;DHT22;10484;48.736;9.332;2023-11-19T03:27:59;8.90;99.90
20650;DHT22;10484;48.736;9.332;2023-11-19T03:30:26;8.90;99.90
20650;DHT22;10484;48.736;9.332;2023-11-19T03:32:54;8.80;99.90
20650;DHT22;10484;48.736;9.332;2023-11-19T03:35:19;8.80;99.90
20650;DHT22;10484;48.736;9.332;2023-11-19T03:37:45;8.90;99.90
20650;DHT22;10484;48.736;9.332;2023-11-19T03:40:12;8.90;99.90
20650;DHT22;10484;48.736;9.332;2023-11-19T03:42:37;8.90;99.90
20650;DHT22;10484;48.736;9.332;2023-11-19T03:45:06;8.90;99.90
20650;DHT22;10484;48.736;9.332;2023-11-19T03:47:34;8.90;99.90
20650;DHT22;10484;48.736;9.332;2023-11-19T03:50:00;8.90;99.90
20650;DHT22;10484;48.736;9.332;2023-11-19T03:52:25;8.90;99.90
20650;DHT22;10484;48.736;9.332;2023-11-19T03:54:52;8.90;99.90
20650;DHT22;10484;48.736;9.332;2023-11-19T03:57:18;8.90;99.90
20650;DHT22;10484;48.736;9.332;2023-11-19T03:59:44;8.90;99.90
20650;DHT22;10484;48.736;9.332;2023-11-19T04:02:10;8.90;99.90
20650;DHT22;10484;48.736;9.332;2023-11-19T04:04:35;8.90;99.90
20650;DHT22;10484;48.736;9.332;2023-11-19T04:07:01;8.90;99.90
20650;DHT22;10484;48.736;9.332;2023-11-19T04:09:29;9.00;99.90
20650;DHT22;10484;48.736;9.332;2023-11-19T04:11:55;9.00;99.90
20650;DHT22;10484;48.736;9.332;2023-11-19T04:14:21;9.00;99.90
20650;DHT22;10484;48.736;9.332;2023-11-19T04:16:46;9.00;99.90
20650;DHT22;10484;48.736;9.332;2023-11-19T04:19:12;9.00;99.90
20650;DHT22;10484;48.736;9.332;2023-11-19T04:21:40;9.00;99.90
20650;DHT22;10484;48.736;9.332;2023-11-19T04:24:07;9.00;99.90
20650;DHT22;10484;48.736;9.332;2023-11-19T04:26:32;9.00;99.90
20650;DHT22;10484;48.736;9.332;2023-11-19T04:28:58;9.00;99.90
20650;DHT22;10484;48.736;9.332;2023-11-19T04:31:29;9.00;99.90
20650;DHT22;10484;48.736;9.332;2023-11-19T04:33:56;9.10;99.90
20650;DHT22;10484;48.736;9.332;2023-11-19T04:36:22;9.10;99.90
20650;DHT22;10484;48.736;9.332;2023-11-19T04:38:49;9.10;99.90
20650;DHT22;10484;48.736;9.332;2023-11-19T04:41:15;9.10;99.90
20650;DHT22;10484;48.736;9.332;2023-11-19T04:43:40;9.10;99.90
20650;DHT22;10484;48.736;9.332;2023-11-19T04:46:06;9.10;99.90
20650;DHT22;10484;48.736;9.332;2023-11-19T04:48:32;9.10;99.90
20650;DHT22;10484;48.736;9.332;2023-11-19T04:50:57;9.10;99.90
20650;DHT22;10484;48.736;9.332;2023-11-19T04:53:23;9.10;99.90
20650;DHT22;10484;48.736;9.332;2023-11-19T04:55:48;9.20;99.90
20650;DHT22;10484;48.736;9.332;2023-11-19T04:58:14;9.20;99.90
20650;DHT22;10484;48.736;9.332;2023-11-19T05:00:40;9.20;99.90
20650;DHT22;10484;48.736;9.332;2023-11-19T05:03:05;9.20;99.90
20650;DHT22;10484;48.736;9.332;2023-11-19T05:05:32;9.20;99.90
20650;DHT22;10484;48.736;9.332;2023-11-19T05:07:57;9.30;99.90
20650;DHT22;10484;48.736;9.332;2023-11-19T05:10:23;9.30;99.90
20650;DHT22;10484;48.736;9.332;2023-11-19T05:12:50;9.30;99.90
20650;DHT22;10484;48.736;9.332;2023-11-19T05:15:17;9.30;99.90
20650;DHT22;10484;48.736;9.332;2023-11-19T05:17:42;9.30;99.90
20650;DHT22;10484;48.736;9.332;2023-11-19T05:20:08;9.40;99.90
20650;DHT22;10484;48.736;9.332;2023-11-19T05:22:42;9.40;99.90
20650;DHT22;10484;48.736;9.332;2023-11-19T05:25:08;9.40;99.90
20650;DHT22;10484;48.736;9.332;2023-11-19T05:27:38;9.40;99.90
20650;DHT22;10484;48.736;9.332;2023-11-19T05:30:05;9.40;99.90
20650;DHT22;10484;48.736;9.332;2023-11-19T05:32:35;9.40;99.90
20650;DHT22;10484;48.736;9.332;2023-11-19T05:35:01;9.40;99.90
20650;DHT22;10484;48.736;9.332;2023-11-19T05:37:27;9.40;99.90
20650;DHT22;10484;48.736;9.332;2023-11-19T05:39:52;9.40;99.90
20650;DHT22;10484;48.736;9.332;2023-11-19T05:42:18;9.40;99.90
20650;DHT22;10484;48.736;9.332;2023-11-19T05:44:44;9.40;99.90
20650;DHT22;10484;48.736;9.332;2023-11-19T05:47:09;9.50;99.90
20650;DHT22;10484;48.736;9.332;2023-11-19T05:49:35;9.40;99.90
20650;DHT22;10484;48.736;9.332;2023-11-19T05:52:00;9.50;99.90
20650;DHT22;10484;48.736;9.332;2023-11-19T05:54:28;9.50;99.90
20650;DHT22;10484;48.736;9.332;2023-11-19T05:56:54;9.50;99.90
20650;DHT22;10484;48.736;9.332;2023-11-19T05:59:20;9.50;99.90
20650;DHT22;10484;48.736;9.332;2023-11-19T06:01:45;9.50;99.90
20650;DHT22;10484;48.736;9.332;2023-11-19T06:04:12;9.50;99.90
20650;DHT22;10484;48.736;9.332;2023-11-19T06:06:37;9.50;99.90
20650;DHT22;10484;48.736;9.332;2023-11-19T06:09:03;9.60;99.90
20650;DHT22;10484;48.736;9.332;2023-11-19T06:11:29;9.70;99.90
20650;DHT22;10484;48.736;9.332;2023-11-19T06:13:55;9.70;99.90
20650;DHT22;10484;48.736;9.332;2023-11-19T06:16:21;9.80;99.90
20650;DHT22;10484;48.736;9.332;2023-11-19T06:18:47;9.90;99.90
20650;DHT22;10484;48.736;9.332;2023-11-19T06:21:13;9.90;99.90
20650;DHT22;10484;48.736;9.332;2023-11-19T06:23:38;9.90;99.90
20650;DHT22;10484;48.736;9.332;2023-11-19T06:26:04;10.00;99.90
20650;DHT22;10484;48.736;9.332;2023-11-19T06:28:31;10.00;99.90
20650;DHT22;10484;48.736;9.332;2023-11-19T06:30:56;10.00;99.90
20650;DHT22;10484;48.736;9.332;2023-11-19T06:33:26;10.00;99.90
20650;DHT22;10484;48.736;9.332;2023-11-19T06:35:52;10.10;99.90
20650;DHT22;10484;48.736;9.332;2023-11-19T06:38:18;10.10;99.90
20650;DHT22;10484;48.736;9.332;2023-11-19T06:40:43;10.10;99.90
20650;DHT22;10484;48.736;9.332;2023-11-19T06:43:09;10.10;99.90
20650;DHT22;10484;48.736;9.332;2023-11-19T06:45:34;10.10;99.90
20650;DHT22;10484;48.736;9.332;2023-11-19T06:48:02;10.10;99.90
20650;DHT22;10484;48.736;9.332;2023-11-19T06:50:31;10.10;99.90
20650;DHT22;10484;48.736;9.332;2023-11-19T06:52:57;10.20;99.90
20650;DHT22;10484;48.736;9.332;2023-11-19T06:55:22;10.20;99.90
20650;DHT22;10484;48.736;9.332;2023-11-19T06:57:48;10.20;99.90
20650;DHT22;10484;48.736;9.332;2023-11-19T07:00:14;10.20;99.90
20650;DHT22;10484;48.736;9.332;2023-11-19T07:02:39;10.30;99.90
20650;DHT22;10484;48.736;9.332;2023-11-19T07:05:05;10.30;99.90
20650;DHT22;10484;48.736;9.332;2023-11-19T07:07:32;10.30;99.90
20650;DHT22;10484;48.736;9.332;2023-11-19T07:09:58;10.30;99.90
20650;DHT22;10484;48.736;9.332;2023-11-19T07:12:24;10.40;99.90
20650;DHT22;10484;48.736;9.332;2023-11-19T07:14:52;10.30;99.90
20650;DHT22;10484;48.736;9.332;2023-11-19T07:17:18;10.40;99.90
20650;DHT22;10484;48.736;9.332;2023-11-19T07:19:45;10.40;99.90
20650;DHT22;10484;48.736;9.332;2023-11-19T07:22:11;10.40;99.90
20650;DHT22;10484;48.736;9.332;2023-11-19T07:24:39;10.40;99.90
20650;DHT22;10484;48.736;9.332;2023-11-19T07:27:04;10.50;99.90
20650;DHT22;10484;48.736;9.332;2023-11-19T07:29:30;10.50;99.90
20650;DHT22;10484;48.736;9.332;2023-11-19T07:31:57;10.50;99.90
20650;DHT22;10484;48.736;9.332;2023-11-19T07:34:22;10.60;99.90
20650;DHT22;10484;48.736;9.332;2023-11-19T07:36:48;10.60;99.90
20650;DHT22;10484;48.736;9.332;2023-11-19T07:39:14;10.60;99.90
20650;DHT22;10484;48.736;9.332;2023-11-19T07:41:40;10.60;99.90
20650;DHT22;10484;48.736;9.332;2023-11-19T07:44:05;10.60;99.90
20650;DHT22;10484;48.736;9.332;2023-11-19T07:46:32;10.60;99.90
20650;DHT22;10484;48.736;9.332;2023-11-19T07:48:57;10.70;99.90
20650;DHT22;10484;48.736;9.332;2023-11-19T07:51:23;10.70;99.90
20650;DHT22;10484;48.736;9.332;2023-11-19T07:53:48;10.70;99.90
20650;DHT22;10484;48.736;9.332;2023-11-19T07:56:14;10.70;99.90
20650;DHT22;10484;48.736;9.332;2023-11-19T07:58:40;10.70;99.90
20650;DHT22;10484;48.736;9.332;2023-11-19T08:01:07;10.80;99.90
20650;DHT22;10484;48.736;9.332;2023-11-19T08:03:32;10.80;99.90
20650;DHT22;10484;48.736;9.332;2023-11-19T08:05:59;10.80;99.90
20650;DHT22;10484;48.736;9.332;2023-11-19T08:08:25;10.80;99.90
20650;DHT22;10484;48.736;9.332;2023-11-19T08:10:51;10.80;99.90
20650;DHT22;10484;48.736;9.332;2023-11-19T08:13:18;10.90;99.90
20650;DHT22;10484;48.736;9.332;2023-11-19T08:15:44;10.90;99.90
20650;DHT22;10484;48.736;9.332;2023-11-19T08:18:10;10.90;99.90
20650;DHT22;10484;48.736;9.332;2023-11-19T08:20:35;10.90;99.90
20650;DHT22;10484;48.736;9.332;2023-11-19T08:23:02;10.90;99.90
20650;DHT22;10484;48.736;9.332;2023-11-19T08:25:29;11.00;99.90
20650;DHT22;10484;48.736;9.332;2023-11-19T08:27:54;11.00;99.90
20650;DHT22;10484;48.736;9.332;2023-11-19T08:30:20;11.00;99.90
20650;DHT22;10484;48.736;9.332;2023-11-19T08:32:45;11.00;99.90
20650;DHT22;10484;48.736;9.332;2023-11-19T08:35:11;11.10;99.90
20650;DHT22;10484;48.736;9.332;2023-11-19T08:37:36;11.10;99.90
20650;DHT22;10484;48.736;9.332;2023-11-19T08:40:03;11.10;99.90
20650;DHT22;10484;48.736;9.332;2023-11-19T08:42:30;11.10;99.90
20650;DHT22;10484;48.736;9.332;2023-11-19T08:44:55;11.10;99.90
20650;DHT22;10484;48.736;9.332;2023-11-19T08:47:21;11.20;99.90
20650;DHT22;10484;48.736;9.332;2023-11-19T08:49:50;11.20;99.90
20650;DHT22;10484;48.736;9.332;2023-11-19T08:52:15;11.20;99.90
20650;DHT22;10484;48.736;9.332;2023-11-19T08:54:43;11.30;99.90
20650;DHT22;10484;48.736;9.332;2023-11-19T08:57:08;11.30;99.90
20650;DHT22;10484;48.736;9.332;2023-11-19T08:59:34;11.30;99.90
20650;DHT22;10484;48.736;9.332;2023-11-19T09:02:00;11.40;99.90
20650;DHT22;10484;48.736;9.332;2023-11-19T09:04:25;11.40;99.90
20650;DHT22;10484;48.736;9.332;2023-11-19T09:06:51;11.40;99.90
20650;DHT22;10484;48.736;9.332;2023-11-19T09:09:17;11.50;99.90
20650;DHT22;10484;48.736;9.332;2023-11-19T09:11:42;11.50;99.90
20650;DHT22;10484;48.736;9.332;2023-11-19T09:14:08;11.50;99.90
20650;DHT22;10484;48.736;9.332;2023-11-19T09:16:33;11.60;99.90
20650;DHT22;10484;48.736;9.332;2023-11-19T09:18:59;11.60;99.90
20650;DHT22;10484;48.736;9.332;2023-11-19T09:21:26;11.70;99.90
20650;DHT22;10484;48.736;9.332;2023-11-19T09:23:51;11.70;99.90
20650;DHT22;10484;48.736;9.332;2023-11-19T09:26:19;11.70;99.90
20650;DHT22;10484;48.736;9.332;2023-11-19T09:28:44;11.80;99.90
20650;DHT22;10484;48.736;9.332;2023-11-19T09:31:14;11.80;99.90
20650;DHT22;10484;48.736;9.332;2023-11-19T09:33:40;11.90;99.90
20650;DHT22;10484;48.736;9.332;2023-11-19T09:36:06;11.90;99.90
20650;DHT22;10484;48.736;9.332;2023-11-19T09:38:31;11.90;99.90
20650;DHT22;10484;48.736;9.332;2023-11-19T09:40:58;11.90;99.90
20650;DHT22;10484;48.736;9.332;2023-11-19T09:43:27;12.00;99.90
20650;DHT22;10484;48.736;9.332;2023-11-19T09:45:54;12.00;99.90
20650;DHT22;10484;48.736;9.332;2023-11-19T09:48:21;12.00;99.90
20650;DHT22;10484;48.736;9.332;2023-11-19T09:50:50;12.00;99.90
20650;DHT22;10484;48.736;9.332;2023-11-19T09:53:17;12.10;99.90
20650;DHT22;10484;48.736;9.332;2023-11-19T09:55:43;12.10;99.90
20650;DHT22;10484;48.736;9.332;2023-11-19T09:58:10;12.10;99.90
20650;DHT22;10484;48.736;9.332;2023-11-19T10:00:37;12.20;99.90
20650;DHT22;10484;48.736;9.332;2023-11-19T10:03:04;12.20;99.90
20650;DHT22;10484;48.736;9.332;2023-11-19T10:05:32;12.30;99.90
20650;DHT22;10484;48.736;9.332;2023-11-19T10:07:58;12.40;99.90
20650;DHT22;10484;48.736;9.332;2023-11-19T10:10:23;12.40;99.90
20650;DHT22;10484;48.736;9.332;2023-11-19T10:12:52;12.50;99.90
20650;DHT22;10484;48.736;9.332;2023-11-19T10:15:21;12.50;99.90
20650;DHT22;10484;48.736;9.332;2023-11-19T10:17:48;12.60;99.90
20650;DHT22;10484;48.736;9.332;2023-11-19T10:20:13;12.70;99.90
20650;DHT22;10484;48.736;9.332;2023-11-19T10:22:39;12.70;99.90
20650;DHT22;10484;48.736;9.332;2023-11-19T10:25:19;12.70;99.90
20650;DHT22;10484;48.736;9.332;2023-11-19T10:27:47;12.70;99.90
20650;DHT22;10484;48.736;9.332;2023-11-19T10:30:17;12.80;99.90
20650;DHT22;10484;48.736;9.332;2023-11-19T10:32:42;12.80;99.90
20650;DHT22;10484;48.736;9.332;2023-11-19T10:35:08;12.90;99.90
20650;DHT22;10484;48.736;9.332;2023-11-19T10:37:35;12.90;99.90
20650;DHT22;10484;48.736;9.332;2023-11-19T10:40:03;13.00;99.90
20650;DHT22;10484;48.736;9.332;2023-11-19T10:42:31;13.00;99.90
20650;DHT22;10484;48.736;9.332;2023-11-19T10:44:56;13.00;99.90
20650;DHT22;10484;48.736;9.332;2023-11-19T10:47:23;13.00;99.90
20650;DHT22;10484;48.736;9.332;2023-11-19T10:49:49;13.10;99.90
20650;DHT22;10484;48.736;9.332;2023-11-19T10:52:18;13.10;99.90
20650;DHT22;10484;48.736;9.332;2023-11-19T10:54:49;13.10;99.90
20650;DHT22;10484;48.736;9.332;2023-11-19T10:57:20;13.10;99.90
20650;DHT22;10484;48.736;9.332;2023-11-19T10:59:47;13.20;99.90
20650;DHT22;10484;48.736;9.332;2023-11-19T11:02:17;13.20;99.90
20650;DHT22;10484;48.736;9.332;2023-11-19T11:04:46;13.30;99.90
20650;DHT22;10484;48.736;9.332;2023-11-19T11:07:14;13.30;99.90
20650;DHT22;10484;48.736;9.332;2023-11-19T11:09:41;13.40;99.90
20650;DHT22;10484;48.736;9.332;2023-11-19T11:12:08;13.40;99.90
20650;DHT22;10484;48.736;9.332;2023-11-19T11:14:37;13.50;99.90
20650;DHT22;10484;48.736;9.332;2023-11-19T11:17:06;13.50;99.90
20650;DHT22;10484;48.736;9.332;2023-11-19T11:19:34;13.60;99.90
20650;DHT22;10484;48.736;9.332;2023-11-19T11:22:00;13.60;99.90
20650;DHT22;10484;48.736;9.332;2023-11-19T11:27:25;13.70;99.90
20650;DHT22;10484;48.736;9.332;2023-11-19T11:30:26;13.70;99.90
20650;DHT22;10484;48.736;9.332;2023-11-19T11:33:32;13.80;99.50
20650;DHT22;10484;48.736;9.332;2023-11-19T11:38:34;13.80;96.30
20650;DHT22;10484;48.736;9.332;2023-11-19T11:41:21;13.80;94.60
20650;DHT22;10484;48.736;9.332;2023-11-19T11:43:51;13.80;93.30
20650;DHT22;10484;48.736;9.332;2023-11-19T11:49:05;13.90;92.60
20650;DHT22;10484;48.736;9.332;2023-11-19T11:51:57;13.90;90.60
20650;DHT22;10484;48.736;9.332;2023-11-19T11:59:52;13.90;83.20
20650;DHT22;10484;48.736;9.332;2023-11-19T12:02:20;13.90;82.50
20650;DHT22;10484;48.736;9.332;2023-11-19T12:04:48;13.90;79.70
20650;DHT22;10484;48.736;9.332;2023-11-19T12:07:22;14.00;74.60
20650;DHT22;10484;48.736;9.332;2023-11-19T12:09:52;14.00;70.60
20650;DHT22;10484;48.736;9.332;2023-11-19T12:20:18;14.10;50.40
20650;DHT22;10484;48.736;9.332;2023-11-19T12:22:45;14.20;42.00
20650;DHT22;10484;48.736;9.332;2023-11-19T12:25:13;14.20;40.20
20650;DHT22;10484;48.736;9.332;2023-11-19T12:27:49;14.20;40.10
20650;DHT22;10484;48.736;9.332;2023-11-19T12:30:25;14.30;40.00
20650;DHT22;10484;48.736;9.332;2023-11-19T12:32:51;14.30;40.00
20650;DHT22;10484;48.736;9.332;2023-11-19T12:35:19;14.30;40.00
20650;DHT22;10484;48.736;9.332;2023-11-19T12:37:46;14.30;40.00
20650;DHT22;10484;48.736;9.332;2023-11-19T12:40:16;14.30;40.00
20650;DHT22;10484;48.736;9.332;2023-11-19T12:42:46;14.30;40.00
20650;DHT22;10484;48.736;9.332;2023-11-19T12:45:12;14.40;40.00
20650;DHT22;10484;48.736;9.332;2023-11-19T12:47:40;14.40;40.00
20650;DHT22;10484;48.736;9.332;2023-11-19T12:50:07;14.40;39.80
20650;DHT22;10484;48.736;9.332;2023-11-19T12:52:34;14.40;39.40
20650;DHT22;10484;48.736;9.332;2023-11-19T12:55:00;14.40;39.50
20650;DHT22;10484;48.736;9.332;2023-11-19T12:57:39;14.50;39.50
20650;DHT22;10484;48.736;9.332;2023-11-19T13:00:06;14.50;39.10
20650;DHT22;10484;48.736;9.332;2023-11-19T13:02:54;14.50;37.70
20650;DHT22;10484;48.736;9.332;2023-11-19T13:10:30;14.60;34.80
20650;DHT22;10484;48.736;9.332;2023-11-19T13:13:02;14.60;33.00
20650;DHT22;10484;48.736;9.332;2023-11-19T13:15:29;14.70;33.60
20650;DHT22;10484;48.736;9.332;2023-11-19T13:17:54;14.70;31.50
20650;DHT22;10484;48.736;9.332;2023-11-19T13:20:20;14.70;31.00
20650;DHT22;10484;48.736;9.332;2023-11-19T13:23:00;14.80;28.90
20650;DHT22;10484;48.736;9.332;2023-11-19T13:25:27;14.80;25.20
20650;DHT22;10484;48.736;9.332;2023-11-19T13:27:53;14.80;24.90
20650;DHT22;10484;48.736;9.332;2023-11-19T13:30:19;14.80;22.80
20650;DHT22;10484;48.736;9.332;2023-11-19T13:32:45;14.70;22.00
20650;DHT22;10484;48.736;9.332;2023-11-19T13:35:12;14.70;21.10
20650;DHT22;10484;48.736;9.332;2023-11-19T13:37:38;14.70;20.10
20650;DHT22;10484;48.736;9.332;2023-11-19T13:40:05;14.70;19.50
20650;DHT22;10484;48.736;9.332;2023-11-19T13:42:31;14.70;18.20
20650;DHT22;10484;48.736;9.332;2023-11-19T13:44:57;14.70;17.30
20650;DHT22;10484;48.736;9.332;2023-11-19T13:47:22;14.70;16.50
20650;DHT22;10484;48.736;9.332;2023-11-19T13:49:49;14.70;15.30
20650;DHT22;10484;48.736;9.332;2023-11-19T13:52:15;14.70;14.80
20650;DHT22;10484;48.736;9.332;2023-11-19T13:54:40;14.70;14.20
20650;DHT22;10484;48.736;9.332;2023-11-19T13:57:06;14.70;13.50
20650;DHT22;10484;48.736;9.332;2023-11-19T13:59:32;14.70;13.00
20650;DHT22;10484;48.736;9.332;2023-11-19T14:01:58;14.70;12.50
20650;DHT22;10484;48.736;9.332;2023-11-19T14:04:24;14.70;11.50
20650;DHT22;10484;48.736;9.332;2023-11-19T14:06:50;14.70;11.30
20650;DHT22;10484;48.736;9.332;2023-11-19T14:09:16;14.70;11.30
20650;DHT22;10484;48.736;9.332;2023-11-19T14:11:42;14.70;10.90
20650;DHT22;10484;48.736;9.332;2023-11-19T14:14:08;14.70;10.70
20650;DHT22;10484;48.736;9.332;2023-11-19T14:16:34;14.70;10.40
20650;DHT22;10484;48.736;9.332;2023-11-19T14:19:00;14.70;10.20
20650;DHT22;10484;48.736;9.332;2023-11-19T14:21:25;14.70;9.60
20650;DHT22;10484;48.736;9.332;2023-11-19T14:23:52;14.60;9.10
20650;DHT22;10484;48.736;9.332;2023-11-19T14:26:18;14.60;8.60
20650;DHT22;10484;48.736;9.332;2023-11-19T14:28:43;14.60;7.50
20650;DHT22;10484;48.736;9.332;2023-11-19T14:31:09;14.60;7.40
20650;DHT22;10484;48.736;9.332;2023-11-19T14:33:35;14.60;6.70
20650;DHT22;10484;48.736;9.332;2023-11-19T14:36:01;14.60;6.00
20650;DHT22;10484;48.736;9.332;2023-11-19T14:38:27;14.60;5.90
20650;DHT22;10484;48.736;9.332;2023-11-19T14:40:53;14.60;5.80
20650;DHT22;10484;48.736;9.332;2023-11-19T14:43:20;14.50;4.70
20650;DHT22;10484;48.736;9.332;2023-11-19T14:45:45;14.60;4.30
20650;DHT22;10484;48.736;9.332;2023-11-19T14:48:11;14.50;4.30
20650;DHT22;10484;48.736;9.332;2023-11-19T14:50:36;14.50;4.30
20650;DHT22;10484;48.736;9.332;2023-11-19T14:53:02;14.50;3.70
20650;DHT22;10484;48.736;9.332;2023-11-19T14:55:28;14.40;4.20
20650;DHT22;10484;48.736;9.332;2023-11-19T14:57:54;14.40;4.70
20650;DHT22;10484;48.736;9.332;2023-11-19T15:00:19;14.30;4.10
20650;DHT22;10484;48.736;9.332;2023-11-19T15:02:46;14.30;4.00
20650;DHT22;10484;48.736;9.332;2023-11-19T15:05:11;14.30;4.40
20650;DHT22;10484;48.736;9.332;2023-11-19T15:07:38;14.20;4.00
20650;DHT22;10484;48.736;9.332;2023-11-19T15:10:05;14.20;3.60
20650;DHT22;10484;48.736;9.332;2023-11-19T15:12:35;14.30;3.40
20650;DHT22;10484;48.736;9.332;2023-11-19T15:15:08;14.20;3.00
20650;DHT22;10484;48.736;9.332;2023-11-19T15:17:35;14.20;4.10
20650;DHT22;10484;48.736;9.332;2023-11-19T15:20:02;14.10;3.50
20650;DHT22;10484;48.736;9.332;2023-11-19T15:22:28;14.10;3.00
20650;DHT22;10484;48.736;9.332;2023-11-19T15:24:53;14.10;2.70
20650;DHT22;10484;48.736;9.332;2023-11-19T15:27:19;14.10;2.80
20650;DHT22;10484;48.736;9.332;2023-11-19T15:29:45;14.10;2.70
20650;DHT22;10484;48.736;9.332;2023-11-19T15:32:10;14.10;3.40
20650;DHT22;10484;48.736;9.332;2023-11-19T15:34:36;14.00;2.90
20650;DHT22;10484;48.736;9.332;2023-11-19T15:37:03;14.00;3.80
20650;DHT22;10484;48.736;9.332;2023-11-19T15:39:29;13.90;3.40
20650;DHT22;10484;48.736;9.332;2023-11-19T15:41:55;13.90;2.80
20650;DHT22;10484;48.736;9.332;2023-11-19T15:44:22;13.90;2.90
20650;DHT22;10484;48.736;9.332;2023-11-19T15:46:47;13.90;2.60
20650;DHT22;10484;48.736;9.332;2023-11-19T15:49:13;13.80;2.60
20650;DHT22;10484;48.736;9.332;2023-11-19T15:51:38;13.80;2.20
20650;DHT22;10484;48.736;9.332;2023-11-19T15:54:04;13.80;1.50
20650;DHT22;10484;48.736;9.332;2023-11-19T15:56:30;13.80;1.10
20650;DHT22;10484;48.736;9.332;2023-11-19T15:58:56;13.90;1.60
20650;DHT22;10484;48.736;9.332;2023-11-19T16:01:22;13.90;1.30
20650;DHT22;10484;48.736;9.332;2023-11-19T16:03:47;13.90;1.10
20650;DHT22;10484;48.736;9.332;2023-11-19T16:06:13;13.80;1.00